sensor_id;sensor_type;location;lat;lon;timestamp;P1;durP1;ratioP1;P2;durP2;ratioP2
70806;SDS011;58882;52.170;5.386;2023-03-14T00:02:40;14.70;;;2.90;;
70806;SDS011;58882;52.170;5.386;2023-03-14T00:05:21;15.32;;;3.50;;
70806;SDS011;58882;52.170;5.386;2023-03-14T00:10:55;13.48;;;3.33;;
70806;SDS011;58882;52.170;5.386;2023-03-14T00:13:41;14.50;;;3.22;;
70806;SDS011;58882;52.170;5.386;2023-03-14T00:16:28;16.52;;;3.28;;
70806;SDS011;58882;52.170;5.386;2023-03-14T00:21:55;16.23;;;3.22;;
70806;SDS011;58882;52.170;5.386;2023-03-14T00:24:29;14.65;;;3.03;;
70806;SDS011;58882;52.170;5.386;2023-03-14T00:27:22;12.82;;;2.97;;
70806;SDS011;58882;52.170;5.386;2023-03-14T00:29:56;20.20;;;3.63;;
70806;SDS011;58882;52.170;5.386;2023-03-14T00:32:49;14.50;;;3.10;;
70806;SDS011;58882;52.170;5.386;2023-03-14T00:38:16;11.85;;;3.08;;
70806;SDS011;58882;52.170;5.386;2023-03-14T00:43:44;14.18;;;3.13;;
70806;SDS011;58882;52.170;5.386;2023-03-14T00:46:26;13.52;;;3.00;;
70806;SDS011;58882;52.170;5.386;2023-03-14T00:49:19;12.25;;;2.60;;
70806;SDS011;58882;52.170;5.386;2023-03-14T00:51:53;18.58;;;2.72;;
70806;SDS011;58882;52.170;5.386;2023-03-14T00:57:27;7.65;;;1.60;;
70806;SDS011;58882;52.170;5.386;2023-03-14T01:00:20;10.07;;;2.30;;
70806;SDS011;58882;52.170;5.386;2023-03-14T01:02:54;10.50;;;1.98;;
70806;SDS011;58882;52.170;5.386;2023-03-14T01:05:47;10.70;;;2.10;;
70806;SDS011;58882;52.170;5.386;2023-03-14T01:08:21;9.20;;;1.98;;
70806;SDS011;58882;52.170;5.386;2023-03-14T01:13:50;9.73;;;1.77;;
70806;SDS011;58882;52.170;5.386;2023-03-14T01:16:44;13.88;;;2.10;;
70806;SDS011;58882;52.170;5.386;2023-03-14T01:19:18;9.93;;;1.98;;
70806;SDS011;58882;52.170;5.386;2023-03-14T01:22:12;12.40;;;2.10;;
70806;SDS011;58882;52.170;5.386;2023-03-14T01:24:54;14.15;;;1.90;;
70806;SDS011;58882;52.170;5.386;2023-03-14T01:27:40;13.88;;;1.67;;
70806;SDS011;58882;52.170;5.386;2023-03-14T01:30:21;4.93;;;1.40;;
70806;SDS011;58882;52.170;5.386;2023-03-14T01:33:14;8.45;;;1.73;;
70806;SDS011;58882;52.170;5.386;2023-03-14T01:35:55;7.60;;;1.83;;
70806;SDS011;58882;52.170;5.386;2023-03-14T01:38:42;8.45;;;1.60;;
70806;SDS011;58882;52.170;5.386;2023-03-14T01:41:23;10.80;;;1.65;;
70806;SDS011;58882;52.170;5.386;2023-03-14T01:44:12;13.80;;;1.98;;
70806;SDS011;58882;52.170;5.386;2023-03-14T01:46:52;9.63;;;1.50;;
70806;SDS011;58882;52.170;5.386;2023-03-14T01:49:47;8.52;;;1.60;;
70806;SDS011;58882;52.170;5.386;2023-03-14T01:52:32;4.95;;;1.50;;
70806;SDS011;58882;52.170;5.386;2023-03-14T01:55:23;9.93;;;1.80;;
70806;SDS011;58882;52.170;5.386;2023-03-14T01:57:58;7.05;;;1.50;;
70806;SDS011;58882;52.170;5.386;2023-03-14T02:00:57;10.90;;;1.75;;
70806;SDS011;58882;52.170;5.386;2023-03-14T02:03:32;9.25;;;1.48;;
70806;SDS011;58882;52.170;5.386;2023-03-14T02:06:57;6.75;;;1.33;;
70806;SDS011;58882;52.170;5.386;2023-03-14T02:09:42;8.95;;;1.30;;
70806;SDS011;58882;52.170;5.386;2023-03-14T02:12:37;9.27;;;1.40;;
70806;SDS011;58882;52.170;5.386;2023-03-14T02:15:19;8.07;;;1.40;;
70806;SDS011;58882;52.170;5.386;2023-03-14T02:18:31;8.27;;;1.65;;
70806;SDS011;58882;52.170;5.386;2023-03-14T02:21:38;9.43;;;1.58;;
70806;SDS011;58882;52.170;5.386;2023-03-14T02:24:44;6.78;;;1.45;;
70806;SDS011;58882;52.170;5.386;2023-03-14T02:27:41;6.15;;;1.42;;
70806;SDS011;58882;52.170;5.386;2023-03-14T02:30:36;10.52;;;1.55;;
70806;SDS011;58882;52.170;5.386;2023-03-14T02:33:17;6.88;;;1.27;;
70806;SDS011;58882;52.170;5.386;2023-03-14T02:36:11;9.00;;;1.40;;
70806;SDS011;58882;52.170;5.386;2023-03-14T02:39:06;7.28;;;1.50;;
70806;SDS011;58882;52.170;5.386;2023-03-14T02:41:59;7.60;;;1.40;;
70806;SDS011;58882;52.170;5.386;2023-03-14T02:47:54;6.35;;;1.23;;
70806;SDS011;58882;52.170;5.386;2023-03-14T02:50:40;7.07;;;1.40;;
70806;SDS011;58882;52.170;5.386;2023-03-14T02:53:35;12.18;;;1.30;;
70806;SDS011;58882;52.170;5.386;2023-03-14T02:56:18;8.57;;;1.30;;
70806;SDS011;58882;52.170;5.386;2023-03-14T02:59:06;8.90;;;1.73;;
70806;SDS011;58882;52.170;5.386;2023-03-14T03:01:54;8.25;;;1.60;;
70806;SDS011;58882;52.170;5.386;2023-03-14T03:04:40;10.77;;;1.40;;
70806;SDS011;58882;52.170;5.386;2023-03-14T03:07:21;8.52;;;1.40;;
70806;SDS011;58882;52.170;5.386;2023-03-14T03:10:08;10.32;;;1.67;;
70806;SDS011;58882;52.170;5.386;2023-03-14T03:12:49;7.28;;;1.38;;
70806;SDS011;58882;52.170;5.386;2023-03-14T03:15:36;10.23;;;1.45;;
70806;SDS011;58882;52.170;5.386;2023-03-14T03:18:17;7.40;;;1.65;;
70806;SDS011;58882;52.170;5.386;2023-03-14T03:21:05;7.43;;;1.92;;
70806;SDS011;58882;52.170;5.386;2023-03-14T03:23:47;8.68;;;1.88;;
70806;SDS011;58882;52.170;5.386;2023-03-14T03:26:34;6.32;;;1.35;;
70806;SDS011;58882;52.170;5.386;2023-03-14T03:29:15;8.50;;;1.60;;
70806;SDS011;58882;52.170;5.386;2023-03-14T03:32:01;7.20;;;1.52;;
70806;SDS011;58882;52.170;5.386;2023-03-14T03:34:42;6.53;;;1.60;;
70806;SDS011;58882;52.170;5.386;2023-03-14T03:37:30;10.80;;;1.77;;
70806;SDS011;58882;52.170;5.386;2023-03-14T03:40:11;8.68;;;1.65;;
70806;SDS011;58882;52.170;5.386;2023-03-14T03:42:57;11.73;;;1.80;;
70806;SDS011;58882;52.170;5.386;2023-03-14T03:45:41;8.43;;;1.60;;
70806;SDS011;58882;52.170;5.386;2023-03-14T03:48:28;8.52;;;1.70;;
70806;SDS011;58882;52.170;5.386;2023-03-14T03:51:11;6.50;;;1.77;;
70806;SDS011;58882;52.170;5.386;2023-03-14T03:54:01;6.78;;;1.50;;
70806;SDS011;58882;52.170;5.386;2023-03-14T03:56:42;6.82;;;1.58;;
70806;SDS011;58882;52.170;5.386;2023-03-14T03:59:35;8.75;;;1.90;;
70806;SDS011;58882;52.170;5.386;2023-03-14T04:02:16;5.85;;;1.50;;
70806;SDS011;58882;52.170;5.386;2023-03-14T04:05:02;5.50;;;1.42;;
70806;SDS011;58882;52.170;5.386;2023-03-14T04:07:40;10.27;;;1.80;;
70806;SDS011;58882;52.170;5.386;2023-03-14T04:10:35;7.28;;;1.58;;
70806;SDS011;58882;52.170;5.386;2023-03-14T04:13:13;11.93;;;1.70;;
70806;SDS011;58882;52.170;5.386;2023-03-14T04:16:14;8.88;;;1.60;;
70806;SDS011;58882;52.170;5.386;2023-03-14T04:19:16;6.38;;;1.60;;
70806;SDS011;58882;52.170;5.386;2023-03-14T04:21:57;7.72;;;1.50;;
70806;SDS011;58882;52.170;5.386;2023-03-14T04:24:51;8.32;;;1.42;;
70806;SDS011;58882;52.170;5.386;2023-03-14T04:27:36;10.38;;;1.90;;
70806;SDS011;58882;52.170;5.386;2023-03-14T04:30:27;12.20;;;1.90;;
70806;SDS011;58882;52.170;5.386;2023-03-14T04:33:11;9.27;;;1.65;;
70806;SDS011;58882;52.170;5.386;2023-03-14T04:36:00;9.50;;;1.60;;
70806;SDS011;58882;52.170;5.386;2023-03-14T04:38:42;9.23;;;1.30;;
70806;SDS011;58882;52.170;5.386;2023-03-14T04:41:30;7.38;;;1.42;;
70806;SDS011;58882;52.170;5.386;2023-03-14T04:44:12;10.15;;;1.67;;
70806;SDS011;58882;52.170;5.386;2023-03-14T04:47:00;10.77;;;1.80;;
70806;SDS011;58882;52.170;5.386;2023-03-14T04:49:43;7.45;;;1.55;;
70806;SDS011;58882;52.170;5.386;2023-03-14T04:52:30;7.45;;;1.55;;
70806;SDS011;58882;52.170;5.386;2023-03-14T04:55:11;10.20;;;1.58;;
70806;SDS011;58882;52.170;5.386;2023-03-14T04:57:59;8.50;;;1.65;;
70806;SDS011;58882;52.170;5.386;2023-03-14T05:00:41;9.45;;;1.77;;
70806;SDS011;58882;52.170;5.386;2023-03-14T05:06:46;7.97;;;1.27;;
70806;SDS011;58882;52.170;5.386;2023-03-14T05:09:59;8.48;;;1.60;;
70806;SDS011;58882;52.170;5.386;2023-03-14T05:12:45;9.60;;;1.98;;
70806;SDS011;58882;52.170;5.386;2023-03-14T05:15:53;8.48;;;1.40;;
70806;SDS011;58882;52.170;5.386;2023-03-14T05:18:50;11.32;;;1.83;;
70806;SDS011;58882;52.170;5.386;2023-03-14T05:22:02;9.48;;;1.77;;
70806;SDS011;58882;52.170;5.386;2023-03-14T05:24:43;11.88;;;1.98;;
70806;SDS011;58882;52.170;5.386;2023-03-14T05:27:47;8.25;;;1.50;;
70806;SDS011;58882;52.170;5.386;2023-03-14T05:30:38;8.25;;;1.50;;
70806;SDS011;58882;52.170;5.386;2023-03-14T05:33:48;9.43;;;1.70;;
70806;SDS011;58882;52.170;5.386;2023-03-14T05:36:29;7.22;;;1.55;;
70806;SDS011;58882;52.170;5.386;2023-03-14T05:39:30;7.05;;;2.00;;
70806;SDS011;58882;52.170;5.386;2023-03-14T05:42:29;5.85;;;1.80;;
70806;SDS011;58882;52.170;5.386;2023-03-14T05:45:24;7.45;;;1.58;;
70806;SDS011;58882;52.170;5.386;2023-03-14T05:48:25;9.93;;;1.98;;
70806;SDS011;58882;52.170;5.386;2023-03-14T05:51:30;6.80;;;1.65;;
70806;SDS011;58882;52.170;5.386;2023-03-14T05:54:25;7.43;;;1.83;;
70806;SDS011;58882;52.170;5.386;2023-03-14T05:57:22;9.50;;;2.20;;
70806;SDS011;58882;52.170;5.386;2023-03-14T06:00:16;6.38;;;1.70;;
70806;SDS011;58882;52.170;5.386;2023-03-14T06:03:17;7.43;;;2.08;;
70806;SDS011;58882;52.170;5.386;2023-03-14T06:08:44;9.27;;;1.95;;
70806;SDS011;58882;52.170;5.386;2023-03-14T06:11:25;8.60;;;2.65;;
70806;SDS011;58882;52.170;5.386;2023-03-14T06:14:12;8.43;;;2.20;;
70806;SDS011;58882;52.170;5.386;2023-03-14T06:16:59;6.97;;;2.40;;
70806;SDS011;58882;52.170;5.386;2023-03-14T06:19:48;6.97;;;2.65;;
70806;SDS011;58882;52.170;5.386;2023-03-14T06:22:35;9.10;;;2.30;;
70806;SDS011;58882;52.170;5.386;2023-03-14T06:25:16;10.75;;;2.58;;
70806;SDS011;58882;52.170;5.386;2023-03-14T06:30:43;6.97;;;2.92;;
70806;SDS011;58882;52.170;5.386;2023-03-14T06:33:43;7.22;;;2.55;;
70806;SDS011;58882;52.170;5.386;2023-03-14T06:36:17;8.30;;;2.80;;
70806;SDS011;58882;52.170;5.386;2023-03-14T06:39:11;12.57;;;2.55;;
70806;SDS011;58882;52.170;5.386;2023-03-14T06:42:01;7.90;;;2.42;;
70806;SDS011;58882;52.170;5.386;2023-03-14T06:44:48;6.95;;;2.13;;
70806;SDS011;58882;52.170;5.386;2023-03-14T06:47:29;4.07;;;1.90;;
70806;SDS011;58882;52.170;5.386;2023-03-14T06:50:15;4.63;;;1.45;;
70806;SDS011;58882;52.170;5.386;2023-03-14T06:52:57;4.38;;;1.33;;
70806;SDS011;58882;52.170;5.386;2023-03-14T06:55:51;4.10;;;1.13;;
70806;SDS011;58882;52.170;5.386;2023-03-14T06:58:33;4.32;;;0.93;;
70806;SDS011;58882;52.170;5.386;2023-03-14T07:01:21;6.32;;;1.05;;
70806;SDS011;58882;52.170;5.386;2023-03-14T07:04:06;2.15;;;0.80;;
70806;SDS011;58882;52.170;5.386;2023-03-14T07:06:53;3.97;;;1.08;;
70806;SDS011;58882;52.170;5.386;2023-03-14T07:09:34;3.03;;;0.93;;
70806;SDS011;58882;52.170;5.386;2023-03-14T07:12:21;4.15;;;1.05;;
70806;SDS011;58882;52.170;5.386;2023-03-14T07:15:02;8.90;;;1.40;;
70806;SDS011;58882;52.170;5.386;2023-03-14T07:18:02;6.28;;;1.17;;
70806;SDS011;58882;52.170;5.386;2023-03-14T07:20:44;2.95;;;0.95;;
70806;SDS011;58882;52.170;5.386;2023-03-14T07:23:39;3.70;;;0.98;;
70806;SDS011;58882;52.170;5.386;2023-03-14T07:26:13;15.10;;;1.00;;
70806;SDS011;58882;52.170;5.386;2023-03-14T07:29:07;2.90;;;0.77;;
70806;SDS011;58882;52.170;5.386;2023-03-14T07:31:48;4.63;;;0.90;;
70806;SDS011;58882;52.170;5.386;2023-03-14T07:34:43;2.60;;;0.80;;
70806;SDS011;58882;52.170;5.386;2023-03-14T07:37:17;4.43;;;0.80;;
70806;SDS011;58882;52.170;5.386;2023-03-14T07:40:11;2.55;;;0.73;;
70806;SDS011;58882;52.170;5.386;2023-03-14T07:42:48;1.92;;;0.80;;
70806;SDS011;58882;52.170;5.386;2023-03-14T07:45:52;1.80;;;0.50;;
70806;SDS011;58882;52.170;5.386;2023-03-14T07:48:31;2.75;;;0.60;;
70806;SDS011;58882;52.170;5.386;2023-03-14T07:53:58;3.20;;;0.75;;
70806;SDS011;58882;52.170;5.386;2023-03-14T07:56:51;3.30;;;0.50;;
70806;SDS011;58882;52.170;5.386;2023-03-14T07:59:25;1.80;;;0.50;;
70806;SDS011;58882;52.170;5.386;2023-03-14T08:05:05;2.72;;;0.70;;
70806;SDS011;58882;52.170;5.386;2023-03-14T08:07:52;3.30;;;1.00;;
70806;SDS011;58882;52.170;5.386;2023-03-14T08:10:33;3.72;;;0.57;;
70806;SDS011;58882;52.170;5.386;2023-03-14T08:13:19;3.15;;;0.68;;
70806;SDS011;58882;52.170;5.386;2023-03-14T08:16:01;3.80;;;0.63;;
70806;SDS011;58882;52.170;5.386;2023-03-14T08:18:54;3.35;;;0.68;;
70806;SDS011;58882;52.170;5.386;2023-03-14T08:21:36;3.55;;;0.82;;
70806;SDS011;58882;52.170;5.386;2023-03-14T08:24:29;2.67;;;0.85;;
70806;SDS011;58882;52.170;5.386;2023-03-14T08:29:57;3.22;;;0.60;;
70806;SDS011;58882;52.170;5.386;2023-03-14T08:32:37;4.00;;;0.43;;
70806;SDS011;58882;52.170;5.386;2023-03-14T08:35:25;2.20;;;0.50;;
70806;SDS011;58882;52.170;5.386;2023-03-14T08:38:06;3.42;;;0.60;;
70806;SDS011;58882;52.170;5.386;2023-03-14T08:40:56;4.68;;;0.50;;
70806;SDS011;58882;52.170;5.386;2023-03-14T08:43:38;3.55;;;0.57;;
70806;SDS011;58882;52.170;5.386;2023-03-14T08:46:24;3.58;;;0.70;;
70806;SDS011;58882;52.170;5.386;2023-03-14T08:51:51;2.47;;;0.50;;
70806;SDS011;58882;52.170;5.386;2023-03-14T08:57:18;1.60;;;0.55;;
70806;SDS011;58882;52.170;5.386;2023-03-14T09:00:14;3.70;;;0.63;;
70806;SDS011;58882;52.170;5.386;2023-03-14T09:02:48;5.57;;;0.77;;
70806;SDS011;58882;52.170;5.386;2023-03-14T09:05:41;2.65;;;0.60;;
70806;SDS011;58882;52.170;5.386;2023-03-14T09:08:15;3.67;;;0.80;;
70806;SDS011;58882;52.170;5.386;2023-03-14T09:11:09;4.53;;;0.60;;
70806;SDS011;58882;52.170;5.386;2023-03-14T09:13:42;5.53;;;1.00;;
70806;SDS011;58882;52.170;5.386;2023-03-14T09:19:16;4.15;;;0.70;;
70806;SDS011;58882;52.170;5.386;2023-03-14T09:24:49;6.43;;;1.23;;
70806;SDS011;58882;52.170;5.386;2023-03-14T09:27:43;6.35;;;0.82;;
70806;SDS011;58882;52.170;5.386;2023-03-14T09:30:17;6.38;;;1.05;;
70806;SDS011;58882;52.170;5.386;2023-03-14T09:35:51;7.15;;;1.17;;
70806;SDS011;58882;52.170;5.386;2023-03-14T09:38:37;8.00;;;0.95;;
70806;SDS011;58882;52.170;5.386;2023-03-14T09:41:18;7.80;;;1.30;;
70806;SDS011;58882;52.170;5.386;2023-03-14T09:44:29;9.98;;;1.10;;
70806;SDS011;58882;52.170;5.386;2023-03-14T09:47:05;5.63;;;1.20;;
70806;SDS011;58882;52.170;5.386;2023-03-14T09:50:00;8.65;;;1.27;;
70806;SDS011;58882;52.170;5.386;2023-03-14T09:55:32;7.97;;;1.20;;
70806;SDS011;58882;52.170;5.386;2023-03-14T09:58:16;9.13;;;1.33;;
70806;SDS011;58882;52.170;5.386;2023-03-14T10:01:13;5.05;;;1.50;;
70806;SDS011;58882;52.170;5.386;2023-03-14T10:04:00;10.20;;;1.00;;
70806;SDS011;58882;52.170;5.386;2023-03-14T10:06:53;12.13;;;1.70;;
70806;SDS011;58882;52.170;5.386;2023-03-14T10:09:36;9.90;;;1.40;;
70806;SDS011;58882;52.170;5.386;2023-03-14T10:12:31;14.70;;;1.83;;
70806;SDS011;58882;52.170;5.386;2023-03-14T10:15:21;5.00;;;1.17;;
70806;SDS011;58882;52.170;5.386;2023-03-14T10:18:23;8.00;;;1.40;;
70806;SDS011;58882;52.170;5.386;2023-03-14T10:21:50;9.77;;;1.42;;
70806;SDS011;58882;52.170;5.386;2023-03-14T10:24:26;13.45;;;1.83;;
70806;SDS011;58882;52.170;5.386;2023-03-14T10:27:17;10.10;;;1.85;;
70806;SDS011;58882;52.170;5.386;2023-03-14T10:30:06;11.90;;;1.55;;
70806;SDS011;58882;52.170;5.386;2023-03-14T10:33:25;9.48;;;1.55;;
70806;SDS011;58882;52.170;5.386;2023-03-14T10:36:23;15.05;;;1.80;;
70806;SDS011;58882;52.170;5.386;2023-03-14T10:48:22;10.48;;;1.70;;
70806;SDS011;58882;52.170;5.386;2023-03-14T10:51:37;11.65;;;1.77;;
70806;SDS011;58882;52.170;5.386;2023-03-14T10:54:24;16.48;;;2.38;;
70806;SDS011;58882;52.170;5.386;2023-03-14T10:57:10;13.75;;;1.80;;
70806;SDS011;58882;52.170;5.386;2023-03-14T10:59:58;10.68;;;1.80;;
70806;SDS011;58882;52.170;5.386;2023-03-14T11:06:08;18.85;;;1.80;;
70806;SDS011;58882;52.170;5.386;2023-03-14T11:09:18;15.15;;;2.05;;
70806;SDS011;58882;52.170;5.386;2023-03-14T11:21:02;13.95;;;2.10;;
70806;SDS011;58882;52.170;5.386;2023-03-14T11:30:18;10.30;;;1.63;;
70806;SDS011;58882;52.170;5.386;2023-03-14T11:33:29;12.13;;;1.52;;
70806;SDS011;58882;52.170;5.386;2023-03-14T11:36:31;14.05;;;1.92;;
70806;SDS011;58882;52.170;5.386;2023-03-14T11:39:17;11.68;;;1.70;;
70806;SDS011;58882;52.170;5.386;2023-03-14T11:42:15;8.77;;;1.60;;
70806;SDS011;58882;52.170;5.386;2023-03-14T11:44:50;11.90;;;1.80;;
70806;SDS011;58882;52.170;5.386;2023-03-14T11:50:26;8.68;;;1.40;;
70806;SDS011;58882;52.170;5.386;2023-03-14T11:53:36;12.20;;;1.83;;
70806;SDS011;58882;52.170;5.386;2023-03-14T11:56:32;11.88;;;1.60;;
70806;SDS011;58882;52.170;5.386;2023-03-14T11:59:44;7.78;;;1.38;;
70806;SDS011;58882;52.170;5.386;2023-03-14T12:05:46;8.85;;;1.55;;
70806;SDS011;58882;52.170;5.386;2023-03-14T12:08:37;8.77;;;1.35;;
70806;SDS011;58882;52.170;5.386;2023-03-14T12:12:10;9.15;;;1.30;;
70806;SDS011;58882;52.170;5.386;2023-03-14T12:15:19;11.95;;;1.90;;
70806;SDS011;58882;52.170;5.386;2023-03-14T12:18:21;12.20;;;1.40;;
70806;SDS011;58882;52.170;5.386;2023-03-14T12:21:06;10.82;;;1.85;;
70806;SDS011;58882;52.170;5.386;2023-03-14T12:23:56;10.40;;;1.83;;
70806;SDS011;58882;52.170;5.386;2023-03-14T12:26:44;9.70;;;1.55;;
70806;SDS011;58882;52.170;5.386;2023-03-14T12:29:56;7.07;;;1.27;;
70806;SDS011;58882;52.170;5.386;2023-03-14T12:32:39;10.07;;;1.77;;
70806;SDS011;58882;52.170;5.386;2023-03-14T12:35:39;10.75;;;1.55;;
70806;SDS011;58882;52.170;5.386;2023-03-14T12:41:26;9.45;;;1.50;;
70806;SDS011;58882;52.170;5.386;2023-03-14T12:50:00;10.15;;;1.50;;
70806;SDS011;58882;52.170;5.386;2023-03-14T12:59:27;6.53;;;1.38;;
70806;SDS011;58882;52.170;5.386;2023-03-14T13:02:28;8.88;;;1.90;;
70806;SDS011;58882;52.170;5.386;2023-03-14T13:05:20;8.60;;;1.40;;
70806;SDS011;58882;52.170;5.386;2023-03-14T13:08:09;8.82;;;1.40;;
70806;SDS011;58882;52.170;5.386;2023-03-14T13:10:49;10.63;;;1.23;;
70806;SDS011;58882;52.170;5.386;2023-03-14T13:13:37;7.18;;;1.52;;
70806;SDS011;58882;52.170;5.386;2023-03-14T13:16:28;8.25;;;1.13;;
70806;SDS011;58882;52.170;5.386;2023-03-14T13:19:29;6.32;;;1.10;;
70806;SDS011;58882;52.170;5.386;2023-03-14T13:22:17;7.25;;;1.13;;
70806;SDS011;58882;52.170;5.386;2023-03-14T13:25:11;9.13;;;1.20;;
70806;SDS011;58882;52.170;5.386;2023-03-14T13:27:52;7.10;;;1.00;;
70806;SDS011;58882;52.170;5.386;2023-03-14T13:30:41;5.70;;;0.88;;
70806;SDS011;58882;52.170;5.386;2023-03-14T13:33:23;5.22;;;1.00;;
70806;SDS011;58882;52.170;5.386;2023-03-14T13:36:09;14.27;;;1.38;;
70806;SDS011;58882;52.170;5.386;2023-03-14T13:38:55;5.13;;;1.00;;
70806;SDS011;58882;52.170;5.386;2023-03-14T13:41:46;8.00;;;1.00;;
70806;SDS011;58882;52.170;5.386;2023-03-14T13:47:16;5.38;;;1.20;;
70806;SDS011;58882;52.170;5.386;2023-03-14T13:49:59;7.82;;;1.00;;
70806;SDS011;58882;52.170;5.386;2023-03-14T13:52:56;8.43;;;1.10;;
70806;SDS011;58882;52.170;5.386;2023-03-14T13:55:38;9.95;;;1.40;;
70806;SDS011;58882;52.170;5.386;2023-03-14T13:58:26;7.95;;;1.02;;
70806;SDS011;58882;52.170;5.386;2023-03-14T14:04:07;10.55;;;1.95;;
70806;SDS011;58882;52.170;5.386;2023-03-14T14:06:54;6.40;;;1.05;;
70806;SDS011;58882;52.170;5.386;2023-03-14T14:09:50;8.63;;;1.15;;
70806;SDS011;58882;52.170;5.386;2023-03-14T14:12:34;8.18;;;1.23;;
70806;SDS011;58882;52.170;5.386;2023-03-14T14:15:37;9.43;;;1.25;;
70806;SDS011;58882;52.170;5.386;2023-03-14T14:18:35;7.65;;;1.60;;
70806;SDS011;58882;52.170;5.386;2023-03-14T14:21:16;7.35;;;1.30;;
70806;SDS011;58882;52.170;5.386;2023-03-14T14:24:03;8.18;;;1.23;;
70806;SDS011;58882;52.170;5.386;2023-03-14T14:26:47;7.43;;;1.27;;
70806;SDS011;58882;52.170;5.386;2023-03-14T14:29:44;6.30;;;1.10;;
70806;SDS011;58882;52.170;5.386;2023-03-14T14:35:32;10.90;;;1.48;;
70806;SDS011;58882;52.170;5.386;2023-03-14T14:38:16;9.35;;;1.25;;
70806;SDS011;58882;52.170;5.386;2023-03-14T14:41:10;6.47;;;1.55;;
70806;SDS011;58882;52.170;5.386;2023-03-14T14:43:44;7.65;;;1.15;;
70806;SDS011;58882;52.170;5.386;2023-03-14T14:49:15;10.32;;;1.27;;
70806;SDS011;58882;52.170;5.386;2023-03-14T14:52:17;6.20;;;1.05;;
70806;SDS011;58882;52.170;5.386;2023-03-14T14:54:57;7.32;;;1.20;;
70806;SDS011;58882;52.170;5.386;2023-03-14T14:57:54;9.00;;;1.15;;
70806;SDS011;58882;52.170;5.386;2023-03-14T15:00:29;5.63;;;1.00;;
70806;SDS011;58882;52.170;5.386;2023-03-14T15:03:28;9.30;;;1.15;;
70806;SDS011;58882;52.170;5.386;2023-03-14T15:06:11;5.68;;;1.00;;
70806;SDS011;58882;52.170;5.386;2023-03-14T15:09:00;8.25;;;1.20;;
70806;SDS011;58882;52.170;5.386;2023-03-14T15:11:41;5.07;;;0.82;;
70806;SDS011;58882;52.170;5.386;2023-03-14T15:14:27;5.78;;;0.90;;
70806;SDS011;58882;52.170;5.386;2023-03-14T15:17:11;6.53;;;0.98;;
70806;SDS011;58882;52.170;5.386;2023-03-14T15:19:58;5.60;;;1.05;;
70806;SDS011;58882;52.170;5.386;2023-03-14T15:22:38;9.02;;;1.20;;
70806;SDS011;58882;52.170;5.386;2023-03-14T15:25:25;5.82;;;1.10;;
70806;SDS011;58882;52.170;5.386;2023-03-14T15:28:25;11.27;;;1.48;;
70806;SDS011;58882;52.170;5.386;2023-03-14T15:31:14;5.28;;;1.05;;
70806;SDS011;58882;52.170;5.386;2023-03-14T15:33:57;7.70;;;1.10;;
70806;SDS011;58882;52.170;5.386;2023-03-14T15:36:43;4.53;;;0.98;;
70806;SDS011;58882;52.170;5.386;2023-03-14T15:39:24;6.55;;;1.00;;
70806;SDS011;58882;52.170;5.386;2023-03-14T15:42:11;6.70;;;1.10;;
70806;SDS011;58882;52.170;5.386;2023-03-14T15:44:52;4.78;;;0.90;;
70806;SDS011;58882;52.170;5.386;2023-03-14T15:47:45;4.88;;;0.93;;
70806;SDS011;58882;52.170;5.386;2023-03-14T15:53:13;7.60;;;1.25;;
70806;SDS011;58882;52.170;5.386;2023-03-14T15:55:54;7.47;;;1.08;;
70806;SDS011;58882;52.170;5.386;2023-03-14T15:58:41;9.75;;;1.30;;
70806;SDS011;58882;52.170;5.386;2023-03-14T16:04:07;3.65;;;0.90;;
70806;SDS011;58882;52.170;5.386;2023-03-14T16:09:41;5.32;;;1.20;;
70806;SDS011;58882;52.170;5.386;2023-03-14T16:15:17;6.38;;;1.17;;
70806;SDS011;58882;52.170;5.386;2023-03-14T16:20:54;7.10;;;1.25;;
70806;SDS011;58882;52.170;5.386;2023-03-14T16:23:43;6.28;;;1.13;;
70806;SDS011;58882;52.170;5.386;2023-03-14T16:26:17;5.18;;;1.10;;
70806;SDS011;58882;52.170;5.386;2023-03-14T16:29:13;7.60;;;1.17;;
70806;SDS011;58882;52.170;5.386;2023-03-14T16:34:39;7.38;;;1.00;;
70806;SDS011;58882;52.170;5.386;2023-03-14T16:37:13;6.43;;;1.30;;
70806;SDS011;58882;52.170;5.386;2023-03-14T16:42:47;7.65;;;1.40;;
70806;SDS011;58882;52.170;5.386;2023-03-14T16:45:56;4.07;;;0.93;;
70806;SDS011;58882;52.170;5.386;2023-03-14T16:48:31;6.47;;;1.42;;
70806;SDS011;58882;52.170;5.386;2023-03-14T16:54:05;7.03;;;1.17;;
70806;SDS011;58882;52.170;5.386;2023-03-14T16:56:51;7.53;;;1.20;;
70806;SDS011;58882;52.170;5.386;2023-03-14T16:59:27;8.48;;;1.60;;
70806;SDS011;58882;52.170;5.386;2023-03-14T17:04:54;8.10;;;1.17;;
70806;SDS011;58882;52.170;5.386;2023-03-14T17:10:28;7.63;;;1.20;;
70806;SDS011;58882;52.170;5.386;2023-03-14T17:13:17;5.50;;;1.20;;
70806;SDS011;58882;52.170;5.386;2023-03-14T17:16:04;6.70;;;1.10;;
70806;SDS011;58882;52.170;5.386;2023-03-14T17:21:38;6.72;;;1.25;;
70806;SDS011;58882;52.170;5.386;2023-03-14T17:24:24;10.02;;;1.40;;
70806;SDS011;58882;52.170;5.386;2023-03-14T17:27:05;6.28;;;1.20;;
70806;SDS011;58882;52.170;5.386;2023-03-14T17:29:53;9.35;;;1.30;;
70806;SDS011;58882;52.170;5.386;2023-03-14T17:32:34;5.65;;;0.98;;
70806;SDS011;58882;52.170;5.386;2023-03-14T17:35:20;7.35;;;1.23;;
70806;SDS011;58882;52.170;5.386;2023-03-14T17:38:01;6.70;;;1.10;;
70806;SDS011;58882;52.170;5.386;2023-03-14T17:40:48;6.45;;;1.23;;
70806;SDS011;58882;52.170;5.386;2023-03-14T17:43:29;6.15;;;1.08;;
70806;SDS011;58882;52.170;5.386;2023-03-14T17:46:16;7.85;;;1.00;;
70806;SDS011;58882;52.170;5.386;2023-03-14T17:48:56;10.65;;;1.75;;
70806;SDS011;58882;52.170;5.386;2023-03-14T17:54:30;7.88;;;1.60;;
70806;SDS011;58882;52.170;5.386;2023-03-14T17:57:16;9.90;;;1.10;;
70806;SDS011;58882;52.170;5.386;2023-03-14T17:59:50;9.88;;;1.48;;
70806;SDS011;58882;52.170;5.386;2023-03-14T18:02:43;10.15;;;1.70;;
70806;SDS011;58882;52.170;5.386;2023-03-14T18:05:25;8.85;;;1.40;;
70806;SDS011;58882;52.170;5.386;2023-03-14T18:08:12;7.38;;;1.60;;
70806;SDS011;58882;52.170;5.386;2023-03-14T18:10:51;8.15;;;1.38;;
70806;SDS011;58882;52.170;5.386;2023-03-14T18:13:46;9.77;;;1.45;;
70806;SDS011;58882;52.170;5.386;2023-03-14T18:16:19;7.95;;;1.30;;
70806;SDS011;58882;52.170;5.386;2023-03-14T18:19:16;8.18;;;1.50;;
70806;SDS011;58882;52.170;5.386;2023-03-14T18:21:49;10.00;;;1.70;;
70806;SDS011;58882;52.170;5.386;2023-03-14T18:24:43;7.80;;;1.75;;
70806;SDS011;58882;52.170;5.386;2023-03-14T18:27:16;6.07;;;1.50;;
70806;SDS011;58882;52.170;5.386;2023-03-14T18:30:10;6.80;;;1.40;;
70806;SDS011;58882;52.170;5.386;2023-03-14T18:32:44;9.60;;;1.42;;
70806;SDS011;58882;52.170;5.386;2023-03-14T18:38:18;8.55;;;1.88;;
70806;SDS011;58882;52.170;5.386;2023-03-14T18:41:06;9.13;;;1.42;;
70806;SDS011;58882;52.170;5.386;2023-03-14T18:43:47;5.32;;;1.25;;
70806;SDS011;58882;52.170;5.386;2023-03-14T18:46:34;9.85;;;1.67;;
70806;SDS011;58882;52.170;5.386;2023-03-14T18:49:14;8.45;;;1.50;;
70806;SDS011;58882;52.170;5.386;2023-03-14T18:52:01;8.85;;;1.70;;
70806;SDS011;58882;52.170;5.386;2023-03-14T18:54:41;5.65;;;1.25;;
70806;SDS011;58882;52.170;5.386;2023-03-14T18:57:35;27.17;;;3.22;;
70806;SDS011;58882;52.170;5.386;2023-03-14T19:00:08;15.13;;;2.25;;
70806;SDS011;58882;52.170;5.386;2023-03-14T19:03:03;7.10;;;1.20;;
70806;SDS011;58882;52.170;5.386;2023-03-14T19:05:43;5.28;;;1.60;;
70806;SDS011;58882;52.170;5.386;2023-03-14T19:08:37;8.57;;;1.50;;
70806;SDS011;58882;52.170;5.386;2023-03-14T19:11:11;4.97;;;1.20;;
70806;SDS011;58882;52.170;5.386;2023-03-14T19:14:06;6.13;;;1.40;;
70806;SDS011;58882;52.170;5.386;2023-03-14T19:16:55;6.47;;;1.38;;
70806;SDS011;58882;52.170;5.386;2023-03-14T19:19:35;5.35;;;1.38;;
70806;SDS011;58882;52.170;5.386;2023-03-14T19:22:21;7.63;;;1.55;;